sensor_id;sensor_type;location;lat;lon;timestamp;pressure;altitude;pressure_sealevel;temperature;humidity
33414;BME280;60055;41.884;12.534;2024-01-10T00:00:14;101600.38;;;8.63;75.12
33414;BME280;60055;41.884;12.534;2024-01-10T00:02:40;101603.97;;;8.57;74.09
33414;BME280;60055;41.884;12.534;2024-01-10T00:05:06;101601.22;;;8.65;74.02
33414;BME280;60055;41.884;12.534;2024-01-10T00:07:31;101596.16;;;8.50;74.51
33414;BME280;60055;41.884;12.534;2024-01-10T00:09:56;101605.91;;;8.43;75.20
33414;BME280;60055;41.884;12.534;2024-01-10T00:12:25;101603.31;;;8.39;75.37
33414;BME280;60055;41.884;12.534;2024-01-10T00:14:50;101605.06;;;8.40;75.50
33414;BME280;60055;41.884;12.534;2024-01-10T00:17:15;101603.28;;;8.43;75.79
33414;BME280;60055;41.884;12.534;2024-01-10T00:19:41;101604.19;;;8.41;75.94
33414;BME280;60055;41.884;12.534;2024-01-10T00:22:06;101608.63;;;8.36;76.04
33414;BME280;60055;41.884;12.534;2024-01-10T00:24:32;101604.47;;;8.16;76.86
33414;BME280;60055;41.884;12.534;2024-01-10T00:26:57;101609.53;;;8.35;76.42
33414;BME280;60055;41.884;12.534;2024-01-10T00:29:23;101614.75;;;8.36;76.34
33414;BME280;60055;41.884;12.534;2024-01-10T00:31:48;101619.09;;;8.39;76.68
33414;BME280;60055;41.884;12.534;2024-01-10T00:34:13;101619.09;;;8.39;76.55
33414;BME280;60055;41.884;12.534;2024-01-10T00:36:39;101620.88;;;8.38;76.59
33414;BME280;60055;41.884;12.534;2024-01-10T00:39:04;101618.28;;;8.35;76.57
33414;BME280;60055;41.884;12.534;2024-01-10T00:41:30;101611.22;;;8.40;76.21
33414;BME280;60055;41.884;12.534;2024-01-10T00:43:55;101614.75;;;8.38;76.99
33414;BME280;60055;41.884;12.534;2024-01-10T00:46:21;101612.16;;;8.35;76.53
33414;BME280;60055;41.884;12.534;2024-01-10T00:48:46;101613.94;;;8.33;76.74
33414;BME280;60055;41.884;12.534;2024-01-10T00:51:11;101616.59;;;8.31;77.18
33414;BME280;60055;41.884;12.534;2024-01-10T00:53:37;101615.84;;;8.17;76.92
33414;BME280;60055;41.884;12.534;2024-01-10T00:56:06;101614.03;;;8.22;77.54
33414;BME280;60055;41.884;12.534;2024-01-10T00:58:32;101614.03;;;8.23;77.08
33414;BME280;60055;41.884;12.534;2024-01-10T01:00:57;101610.56;;;8.20;77.01
33414;BME280;60055;41.884;12.534;2024-01-10T01:03:23;101613.97;;;8.27;76.52
33414;BME280;60055;41.884;12.534;2024-01-10T01:05:48;101616.63;;;8.27;76.57
33414;BME280;60055;41.884;12.534;2024-01-10T01:08:13;101614.09;;;8.17;76.17
33414;BME280;60055;41.884;12.534;2024-01-10T01:10:39;101610.56;;;8.20;76.40
33414;BME280;60055;41.884;12.534;2024-01-10T01:13:04;101608.88;;;8.13;76.49
33414;BME280;60055;41.884;12.534;2024-01-10T01:15:30;101614.22;;;8.07;76.34
33414;BME280;60055;41.884;12.534;2024-01-10T01:17:55;101618.56;;;8.09;76.50
33414;BME280;60055;41.884;12.534;2024-01-10T01:20:20;101613.19;;;8.18;76.59
33414;BME280;60055;41.884;12.534;2024-01-10T01:22:46;101617.66;;;8.12;76.05
33414;BME280;60055;41.884;12.534;2024-01-10T01:25:11;101617.84;;;7.97;76.56
33414;BME280;60055;41.884;12.534;2024-01-10T01:27:37;101620.38;;;8.06;76.74
33414;BME280;60055;41.884;12.534;2024-01-10T01:30:02;101621.28;;;8.03;76.04
33414;BME280;60055;41.884;12.534;2024-01-10T01:32:28;101623.94;;;7.99;76.20
33414;BME280;60055;41.884;12.534;2024-01-10T01:34:54;101626.50;;;8.06;76.07
33414;BME280;60055;41.884;12.534;2024-01-10T01:37:19;101627.25;;;8.17;75.51
33414;BME280;60055;41.884;12.534;2024-01-10T01:39:44;101633.44;;;8.13;75.97
33414;BME280;60055;41.884;12.534;2024-01-10T01:42:10;101639.44;;;8.25;75.28
33414;BME280;60055;41.884;12.534;2024-01-10T01:44:35;101627.41;;;8.04;75.81
33414;BME280;60055;41.884;12.534;2024-01-10T01:47:01;101638.84;;;7.98;75.26
33414;BME280;60055;41.884;12.534;2024-01-10T01:49:27;101635.41;;;7.93;76.05
33414;BME280;60055;41.884;12.534;2024-01-10T01:51:54;101640.84;;;7.77;77.00
33414;BME280;60055;41.884;12.534;2024-01-10T01:54:20;101638.91;;;7.94;76.44
33414;BME280;60055;41.884;12.534;2024-01-10T01:56:46;101641.56;;;7.92;76.54
33414;BME280;60055;41.884;12.534;2024-01-10T01:59:11;101637.22;;;7.90;76.27
33414;BME280;60055;41.884;12.534;2024-01-10T02:01:37;101638.94;;;7.92;76.12
33414;BME280;60055;41.884;12.534;2024-01-10T02:04:04;101647.75;;;7.87;76.16
33414;BME280;60055;41.884;12.534;2024-01-10T02:06:29;101645.22;;;7.75;76.35
33414;BME280;60055;41.884;12.534;2024-01-10T02:08:56;101651.50;;;7.61;76.51
33414;BME280;60055;41.884;12.534;2024-01-10T02:11:22;101641.97;;;7.50;76.97
33414;BME280;60055;41.884;12.534;2024-01-10T02:13:49;101645.47;;;7.47;77.37
33414;BME280;60055;41.884;12.534;2024-01-10T02:16:14;101644.63;;;7.47;77.74
33414;BME280;60055;41.884;12.534;2024-01-10T02:18:40;101635.91;;;7.40;78.01
33414;BME280;60055;41.884;12.534;2024-01-10T02:21:05;101628.94;;;7.39;78.23
33414;BME280;60055;41.884;12.534;2024-01-10T02:23:31;101629.84;;;7.37;78.54
33414;BME280;60055;41.884;12.534;2024-01-10T02:25:56;101634.16;;;7.41;78.59
33414;BME280;60055;41.884;12.534;2024-01-10T02:28:22;101641.03;;;7.54;78.30
33414;BME280;60055;41.884;12.534;2024-01-10T02:30:51;101634.00;;;7.57;77.98
33414;BME280;60055;41.884;12.534;2024-01-10T02:33:17;101648.03;;;7.59;78.12
33414;BME280;60055;41.884;12.534;2024-01-10T02:35:43;101646.28;;;7.58;78.07
33414;BME280;60055;41.884;12.534;2024-01-10T02:38:08;101644.59;;;7.50;78.64
33414;BME280;60055;41.884;12.534;2024-01-10T02:40:33;101644.47;;;7.60;78.19
33414;BME280;60055;41.884;12.534;2024-01-10T02:42:59;101649.56;;;7.80;77.74
33414;BME280;60055;41.884;12.534;2024-01-10T02:45:24;101646.06;;;7.78;77.23
33414;BME280;60055;41.884;12.534;2024-01-10T02:47:50;101644.28;;;7.83;76.90
33414;BME280;60055;41.884;12.534;2024-01-10T02:50:15;101640.75;;;7.86;76.32
33414;BME280;60055;41.884;12.534;2024-01-10T02:52:41;101637.16;;;7.93;76.61
33414;BME280;60055;41.884;12.534;2024-01-10T02:55:07;101635.38;;;7.95;76.21
33414;BME280;60055;41.884;12.534;2024-01-10T02:57:32;101634.69;;;7.79;76.77
33414;BME280;60055;41.884;12.534;2024-01-10T02:59:58;101635.44;;;7.89;76.43
33414;BME280;60055;41.884;12.534;2024-01-10T03:02:23;101632.94;;;7.78;76.09
33414;BME280;60055;41.884;12.534;2024-01-10T03:04:49;101638.13;;;7.84;76.37
33414;BME280;60055;41.884;12.534;2024-01-10T03:07:15;101627.59;;;7.84;75.94
33414;BME280;60055;41.884;12.534;2024-01-10T03:09:40;101631.94;;;7.88;75.80
33414;BME280;60055;41.884;12.534;2024-01-10T03:12:06;101642.53;;;7.82;76.85
33414;BME280;60055;41.884;12.534;2024-01-10T03:14:33;101642.56;;;7.81;76.16
33414;BME280;60055;41.884;12.534;2024-01-10T03:16:59;101640.75;;;7.87;76.05
33414;BME280;60055;41.884;12.534;2024-01-10T03:19:24;101643.50;;;7.74;76.17
33414;BME280;60055;41.884;12.534;2024-01-10T03:21:50;101648.75;;;7.77;76.25
33414;BME280;60055;41.884;12.534;2024-01-10T03:24:16;101656.53;;;7.86;75.83
33414;BME280;60055;41.884;12.534;2024-01-10T03:26:42;101655.53;;;7.94;75.65
33414;BME280;60055;41.884;12.534;2024-01-10T03:29:07;101651.97;;;8.01;75.51
33414;BME280;60055;41.884;12.534;2024-01-10T03:31:32;101652.97;;;7.90;75.09
33414;BME280;60055;41.884;12.534;2024-01-10T03:33:58;101648.56;;;7.92;75.38
33414;BME280;60055;41.884;12.534;2024-01-10T03:36:23;101652.00;;;7.98;74.97
33414;BME280;60055;41.884;12.534;2024-01-10T03:38:49;101642.34;;;7.99;75.14
33414;BME280;60055;41.884;12.534;2024-01-10T03:41:19;101638.81;;;8.01;75.43
33414;BME280;60055;41.884;12.534;2024-01-10T03:43:45;101642.34;;;8.00;74.73
33414;BME280;60055;41.884;12.534;2024-01-10T03:46:10;101641.59;;;7.91;75.26
33414;BME280;60055;41.884;12.534;2024-01-10T03:48:37;101644.25;;;7.86;75.46
33414;BME280;60055;41.884;12.534;2024-01-10T03:51:03;101647.66;;;7.94;75.55
33414;BME280;60055;41.884;12.534;2024-01-10T03:53:30;101646.84;;;7.88;75.60
33414;BME280;60055;41.884;12.534;2024-01-10T03:55:55;101646.81;;;7.94;76.13
33414;BME280;60055;41.884;12.534;2024-01-10T03:58:23;101639.75;;;7.96;75.62
33414;BME280;60055;41.884;12.534;2024-01-10T04:00:48;101644.19;;;7.92;75.36
33414;BME280;60055;41.884;12.534;2024-01-10T04:03:14;101641.47;;;8.00;75.25
33414;BME280;60055;41.884;12.534;2024-01-10T04:05:41;101651.13;;;7.99;75.79
33414;BME280;60055;41.884;12.534;2024-01-10T04:08:06;101644.09;;;8.00;75.36
33414;BME280;60055;41.884;12.534;2024-01-10T04:10:32;101651.06;;;8.05;75.27
33414;BME280;60055;41.884;12.534;2024-01-10T04:12:57;101648.22;;;8.23;76.38
33414;BME280;60055;41.884;12.534;2024-01-10T04:15:23;101648.25;;;8.20;75.11
33414;BME280;60055;41.884;12.534;2024-01-10T04:17:48;101645.69;;;8.14;74.92
33414;BME280;60055;41.884;12.534;2024-01-10T04:20:13;101651.72;;;8.22;74.75
33414;BME280;60055;41.884;12.534;2024-01-10T04:22:39;101648.22;;;8.23;74.71
33414;BME280;60055;41.884;12.534;2024-01-10T04:25:06;101651.00;;;8.10;74.63
33414;BME280;60055;41.884;12.534;2024-01-10T04:27:32;101655.25;;;8.21;74.75
33414;BME280;60055;41.884;12.534;2024-01-10T04:29:57;101655.25;;;8.25;74.72
33414;BME280;60055;41.884;12.534;2024-01-10T04:32:23;101669.16;;;8.36;74.81
33414;BME280;60055;41.884;12.534;2024-01-10T04:34:48;101658.59;;;8.39;74.71
33414;BME280;60055;41.884;12.534;2024-01-10T04:37:14;101651.84;;;8.13;75.29
33414;BME280;60055;41.884;12.534;2024-01-10T04:39:39;101664.84;;;8.30;77.29
33414;BME280;60055;41.884;12.534;2024-01-10T04:42:05;101658.78;;;8.19;75.71
33414;BME280;60055;41.884;12.534;2024-01-10T04:44:31;101660.47;;;8.28;75.96
33414;BME280;60055;41.884;12.534;2024-01-10T04:46:56;101665.75;;;8.21;76.14
33414;BME280;60055;41.884;12.534;2024-01-10T04:49:22;101658.88;;;8.11;76.30
33414;BME280;60055;41.884;12.534;2024-01-10T04:51:48;101667.75;;;8.01;76.53
33414;BME280;60055;41.884;12.534;2024-01-10T04:54:13;101672.97;;;8.04;76.56
33414;BME280;60055;41.884;12.534;2024-01-10T04:56:39;101680.81;;;8.10;76.89
33414;BME280;60055;41.884;12.534;2024-01-10T04:59:04;101680.78;;;8.12;76.80
33414;BME280;60055;41.884;12.534;2024-01-10T05:01:31;101671.13;;;8.14;76.59
33414;BME280;60055;41.884;12.534;2024-01-10T05:03:57;101677.25;;;8.14;76.64
33414;BME280;60055;41.884;12.534;2024-01-10T05:06:23;101671.22;;;8.05;76.67
33414;BME280;60055;41.884;12.534;2024-01-10T05:08:48;101675.50;;;8.15;76.41
33414;BME280;60055;41.884;12.534;2024-01-10T05:11:15;101679.09;;;8.06;76.60
33414;BME280;60055;41.884;12.534;2024-01-10T05:13:41;101680.78;;;8.12;76.74
33414;BME280;60055;41.884;12.534;2024-01-10T05:16:06;101681.81;;;8.00;76.54
33414;BME280;60055;41.884;12.534;2024-01-10T05:18:32;101687.00;;;8.05;76.87
33414;BME280;60055;41.884;12.534;2024-01-10T05:20:58;101682.69;;;7.98;77.39
33414;BME280;60055;41.884;12.534;2024-01-10T05:23:24;101686.16;;;8.03;76.78
33414;BME280;60055;41.884;12.534;2024-01-10T05:25:50;101685.25;;;8.05;76.89
33414;BME280;60055;41.884;12.534;2024-01-10T05:28:15;101687.09;;;7.97;76.98
33414;BME280;60055;41.884;12.534;2024-01-10T05:30:41;101681.03;;;7.88;77.37
33414;BME280;60055;41.884;12.534;2024-01-10T05:33:08;101684.56;;;7.85;77.53
33414;BME280;60055;41.884;12.534;2024-01-10T05:35:34;101684.56;;;7.87;78.17
33414;BME280;60055;41.884;12.534;2024-01-10T05:38:01;101684.50;;;7.91;77.71
33414;BME280;60055;41.884;12.534;2024-01-10T05:40:28;101683.66;;;7.89;78.27
33414;BME280;60055;41.884;12.534;2024-01-10T05:42:55;101689.91;;;7.81;78.11
33414;BME280;60055;41.884;12.534;2024-01-10T05:45:21;101688.91;;;7.88;78.16
33414;BME280;60055;41.884;12.534;2024-01-10T05:47:46;101692.50;;;7.82;78.84
33414;BME280;60055;41.884;12.534;2024-01-10T05:50:13;101685.47;;;7.81;78.57
33414;BME280;60055;41.884;12.534;2024-01-10T05:52:39;101689.81;;;7.87;78.05
33414;BME280;60055;41.884;12.534;2024-01-10T05:55:04;101693.34;;;7.84;77.91
33414;BME280;60055;41.884;12.534;2024-01-10T05:57:31;101688.94;;;7.86;78.96
33414;BME280;60055;41.884;12.534;2024-01-10T05:59:57;101696.81;;;7.88;78.61
33414;BME280;60055;41.884;12.534;2024-01-10T06:02:23;101698.63;;;7.81;78.52
33414;BME280;60055;41.884;12.534;2024-01-10T06:04:49;101698.53;;;7.92;78.40
33414;BME280;60055;41.884;12.534;2024-01-10T06:07:15;101702.97;;;7.87;78.61
33414;BME280;60055;41.884;12.534;2024-01-10T06:09:40;101700.28;;;7.91;79.13
33414;BME280;60055;41.884;12.534;2024-01-10T06:12:06;101700.34;;;7.87;78.59
33414;BME280;60055;41.884;12.534;2024-01-10T06:14:32;101699.41;;;7.94;78.92
33414;BME280;60055;41.884;12.534;2024-01-10T06:16:57;101694.16;;;7.92;78.48
33414;BME280;60055;41.884;12.534;2024-01-10T06:19:25;101699.41;;;7.92;78.86
33414;BME280;60055;41.884;12.534;2024-01-10T06:21:50;101697.63;;;7.94;78.60
33414;BME280;60055;41.884;12.534;2024-01-10T06:24:17;101700.41;;;7.81;79.76
33414;BME280;60055;41.884;12.534;2024-01-10T06:26:43;101706.41;;;7.92;79.02
33414;BME280;60055;41.884;12.534;2024-01-10T06:29:08;101706.50;;;7.81;79.65
33414;BME280;60055;41.884;12.534;2024-01-10T06:31:33;101706.44;;;7.90;79.37
33414;BME280;60055;41.884;12.534;2024-01-10T06:33:59;101702.88;;;7.94;78.98
33414;BME280;60055;41.884;12.534;2024-01-10T06:36:24;101707.31;;;7.89;79.78
33414;BME280;60055;41.884;12.534;2024-01-10T06:38:50;101702.06;;;7.89;79.69
33414;BME280;60055;41.884;12.534;2024-01-10T06:41:15;101710.78;;;7.97;79.54
33414;BME280;60055;41.884;12.534;2024-01-10T06:43:41;101714.25;;;8.01;79.75
33414;BME280;60055;41.884;12.534;2024-01-10T06:46:07;101714.34;;;7.90;80.18
33414;BME280;60055;41.884;12.534;2024-01-10T06:48:32;101718.72;;;7.88;80.51
33414;BME280;60055;41.884;12.534;2024-01-10T06:50:59;101723.91;;;7.97;80.46
33414;BME280;60055;41.884;12.534;2024-01-10T06:53:24;101722.09;;;8.02;80.08
33414;BME280;60055;41.884;12.534;2024-01-10T06:55:50;101718.59;;;8.03;79.97
33414;BME280;60055;41.884;12.534;2024-01-10T06:58:15;101722.06;;;8.07;80.03
33414;BME280;60055;41.884;12.534;2024-01-10T07:00:41;101725.69;;;7.92;80.69
33414;BME280;60055;41.884;12.534;2024-01-10T07:03:07;101719.59;;;7.90;80.83
33414;BME280;60055;41.884;12.534;2024-01-10T07:05:32;101727.41;;;7.95;81.20
33414;BME280;60055;41.884;12.534;2024-01-10T07:07:58;101727.38;;;7.98;80.46
33414;BME280;60055;41.884;12.534;2024-01-10T07:10:24;101732.66;;;7.99;80.32
33414;BME280;60055;41.884;12.534;2024-01-10T07:12:53;101736.13;;;8.01;80.30
33414;BME280;60055;41.884;12.534;2024-01-10T07:15:19;101738.78;;;7.98;80.15
33414;BME280;60055;41.884;12.534;2024-01-10T07:17:44;101737.84;;;8.05;81.04
33414;BME280;60055;41.884;12.534;2024-01-10T07:20:10;101733.47;;;8.07;79.78
33414;BME280;60055;41.884;12.534;2024-01-10T07:22:37;101742.16;;;8.12;79.57
33414;BME280;60055;41.884;12.534;2024-01-10T07:25:10;101744.06;;;7.95;79.46
33414;BME280;60055;41.884;12.534;2024-01-10T07:27:48;101746.59;;;8.10;78.88
33414;BME280;60055;41.884;12.534;2024-01-10T07:30:13;101747.56;;;7.99;79.77
33414;BME280;60055;41.884;12.534;2024-01-10T07:32:43;101751.81;;;8.13;79.12
33414;BME280;60055;41.884;12.534;2024-01-10T07:35:10;101749.91;;;8.28;78.73
33414;BME280;60055;41.884;12.534;2024-01-10T07:37:39;101751.91;;;8.01;78.80
33414;BME280;60055;41.884;12.534;2024-01-10T07:40:06;101762.34;;;8.13;79.22
33414;BME280;60055;41.884;12.534;2024-01-10T07:42:32;101764.00;;;8.22;78.25
33414;BME280;60055;41.884;12.534;2024-01-10T07:44:58;101766.69;;;8.16;78.08
33414;BME280;60055;41.884;12.534;2024-01-10T07:47:23;101772.75;;;8.22;78.33
33414;BME280;60055;41.884;12.534;2024-01-10T07:49:49;101756.13;;;8.19;79.32
33414;BME280;60055;41.884;12.534;2024-01-10T07:52:14;101765.81;;;8.17;79.21
33414;BME280;60055;41.884;12.534;2024-01-10T07:54:41;101775.34;;;8.27;79.04
33414;BME280;60055;41.884;12.534;2024-01-10T07:57:07;101768.31;;;8.32;77.98
33414;BME280;60055;41.884;12.534;2024-01-10T07:59:33;101771.00;;;8.21;78.49
33414;BME280;60055;41.884;12.534;2024-01-10T08:02:00;101771.00;;;8.21;79.03
33414;BME280;60055;41.884;12.534;2024-01-10T08:04:26;101763.91;;;8.33;78.74
33414;BME280;60055;41.884;12.534;2024-01-10T08:06:52;101770.06;;;8.35;79.50
33414;BME280;60055;41.884;12.534;2024-01-10T08:09:18;101771.84;;;8.30;78.93
33414;BME280;60055;41.884;12.534;2024-01-10T08:11:44;101777.78;;;8.48;79.25
33414;BME280;60055;41.884;12.534;2024-01-10T08:14:10;101775.94;;;8.56;78.58
33414;BME280;60055;41.884;12.534;2024-01-10T08:16:36;101784.66;;;8.64;77.45
33414;BME280;60055;41.884;12.534;2024-01-10T08:19:01;101783.00;;;8.53;77.31
33414;BME280;60055;41.884;12.534;2024-01-10T08:21:26;101791.66;;;8.64;77.58
33414;BME280;60055;41.884;12.534;2024-01-10T08:23:52;101795.88;;;8.80;77.22
33414;BME280;60055;41.884;12.534;2024-01-10T08:26:17;101796.69;;;8.82;77.60
33414;BME280;60055;41.884;12.534;2024-01-10T08:28:43;101799.34;;;8.82;76.18
33414;BME280;60055;41.884;12.534;2024-01-10T08:31:08;101799.28;;;8.87;75.66
33414;BME280;60055;41.884;12.534;2024-01-10T08:33:33;101798.50;;;8.80;75.83
33414;BME280;60055;41.884;12.534;2024-01-10T08:35:59;101795.69;;;8.95;75.34
33414;BME280;60055;41.884;12.534;2024-01-10T08:38:24;101793.94;;;8.94;75.41
33414;BME280;60055;41.884;12.534;2024-01-10T08:40:50;101804.44;;;8.96;74.90
33414;BME280;60055;41.884;12.534;2024-01-10T08:43:15;101807.00;;;9.05;75.54
33414;BME280;60055;41.884;12.534;2024-01-10T08:45:43;101801.41;;;9.28;75.36
33414;BME280;60055;41.884;12.534;2024-01-10T08:48:09;101803.53;;;9.01;75.48
33414;BME280;60055;41.884;12.534;2024-01-10T08:50:35;101806.25;;;8.94;75.89
33414;BME280;60055;41.884;12.534;2024-01-10T08:53:01;101814.97;;;8.97;76.47
33414;BME280;60055;41.884;12.534;2024-01-10T08:55:30;101819.25;;;9.07;77.48
33414;BME280;60055;41.884;12.534;2024-01-10T08:57:56;101817.41;;;9.15;76.04
33414;BME280;60055;41.884;12.534;2024-01-10T09:00:22;101821.88;;;9.06;75.79
33414;BME280;60055;41.884;12.534;2024-01-10T09:02:47;101822.75;;;9.08;76.52
33414;BME280;60055;41.884;12.534;2024-01-10T09:05:12;101824.34;;;9.19;76.63
33414;BME280;60055;41.884;12.534;2024-01-10T09:07:38;101828.66;;;9.27;76.38
33414;BME280;60055;41.884;12.534;2024-01-10T09:10:04;101828.59;;;9.30;75.66
33414;BME280;60055;41.884;12.534;2024-01-10T09:12:31;101828.47;;;9.40;75.08
33414;BME280;60055;41.884;12.534;2024-01-10T09:14:56;101831.06;;;9.45;75.50
33414;BME280;60055;41.884;12.534;2024-01-10T09:17:21;101831.25;;;9.30;73.51
33414;BME280;60055;41.884;12.534;2024-01-10T09:19:47;101832.06;;;9.35;73.35
33414;BME280;60055;41.884;12.534;2024-01-10T09:22:12;101825.63;;;9.54;72.90
33414;BME280;60055;41.884;12.534;2024-01-10T09:24:39;101827.25;;;9.64;72.50
33414;BME280;60055;41.884;12.534;2024-01-10T09:27:04;101839.44;;;9.72;71.54
33414;BME280;60055;41.884;12.534;2024-01-10T09:29:30;101832.41;;;9.71;70.75
33414;BME280;60055;41.884;12.534;2024-01-10T09:31:57;101834.19;;;9.71;70.68
33414;BME280;60055;41.884;12.534;2024-01-10T09:34:22;101829.53;;;9.88;70.89
33414;BME280;60055;41.884;12.534;2024-01-10T09:36:48;101831.22;;;9.92;70.01
33414;BME280;60055;41.884;12.534;2024-01-10T09:39:13;101822.38;;;9.95;69.73
33414;BME280;60055;41.884;12.534;2024-01-10T09:41:49;101824.09;;;9.97;69.72
33414;BME280;60055;41.884;12.534;2024-01-10T09:44:17;101811.75;;;9.99;69.45
33414;BME280;60055;41.884;12.534;2024-01-10T09:46:48;101817.91;;;10.00;67.96
33414;BME280;60055;41.884;12.534;2024-01-10T09:49:14;101817.03;;;9.99;67.69
33414;BME280;60055;41.884;12.534;2024-01-10T09:51:40;101817.91;;;10.00;67.58
33414;BME280;60055;41.884;12.534;2024-01-10T09:54:06;101823.03;;;10.07;67.04
33414;BME280;60055;41.884;12.534;2024-01-10T09:56:32;101807.94;;;10.20;67.11
33414;BME280;60055;41.884;12.534;2024-01-10T09:59:01;101817.38;;;10.32;66.65
33414;BME280;60055;41.884;12.534;2024-01-10T10:01:27;101811.03;;;10.43;66.28
33414;BME280;60055;41.884;12.534;2024-01-10T10:03:53;101811.88;;;10.45;66.15
33414;BME280;60055;41.884;12.534;2024-01-10T10:06:21;101811.63;;;10.59;65.24
33414;BME280;60055;41.884;12.534;2024-01-10T10:08:47;101814.38;;;10.54;64.80
33414;BME280;60055;41.884;12.534;2024-01-10T10:11:13;101810.75;;;10.58;64.83
33414;BME280;60055;41.884;12.534;2024-01-10T10:13:42;101804.44;;;10.67;64.75
33414;BME280;60055;41.884;12.534;2024-01-10T10:16:08;101805.03;;;10.81;65.21
33414;BME280;60055;41.884;12.534;2024-01-10T10:18:35;101801.47;;;10.82;64.35
33414;BME280;60055;41.884;12.534;2024-01-10T10:23:37;101796.56;;;11.08;64.59
33414;BME280;60055;41.884;12.534;2024-01-10T10:26:13;101791.19;;;11.11;62.27
33414;BME280;60055;41.884;12.534;2024-01-10T10:28:44;101789.75;;;10.95;61.76
33414;BME280;60055;41.884;12.534;2024-01-10T10:31:10;101784.47;;;10.95;61.93
33414;BME280;60055;41.884;12.534;2024-01-10T10:33:36;101777.41;;;10.97;62.36
33414;BME280;60055;41.884;12.534;2024-01-10T10:36:02;101778.22;;;10.99;63.49
33414;BME280;60055;41.884;12.534;2024-01-10T10:38:28;101765.94;;;10.97;63.08
33414;BME280;60055;41.884;12.534;2024-01-10T10:40:55;101771.22;;;10.98;61.93
33414;BME280;60055;41.884;12.534;2024-01-10T10:43:21;101770.44;;;10.93;61.92
33414;BME280;60055;41.884;12.534;2024-01-10T10:45:48;101760.88;;;10.88;61.37
33414;BME280;60055;41.884;12.534;2024-01-10T10:48:16;101761.75;;;10.88;62.57
33414;BME280;60055;41.884;12.534;2024-01-10T10:53:21;101757.88;;;11.04;61.83
33414;BME280;60055;41.884;12.534;2024-01-10T10:55:48;101753.63;;;10.96;59.97
33414;BME280;60055;41.884;12.534;2024-01-10T10:58:15;101749.16;;;10.99;60.55
33414;BME280;60055;41.884;12.534;2024-01-10T11:00:41;101741.09;;;11.05;61.05
33414;BME280;60055;41.884;12.534;2024-01-10T11:03:10;101738.41;;;11.07;61.18
33414;BME280;60055;41.884;12.534;2024-01-10T11:05:40;101747.09;;;11.13;62.70
33414;BME280;60055;41.884;12.534;2024-01-10T11:08:08;101734.66;;;11.17;63.02
33414;BME280;60055;41.884;12.534;2024-01-10T11:10:37;101737.03;;;11.29;64.31
33414;BME280;60055;41.884;12.534;2024-01-10T11:14:08;101739.66;;;11.31;64.14
33414;BME280;60055;41.884;12.534;2024-01-10T11:16:37;101736.69;;;11.43;62.82
33414;BME280;60055;41.884;12.534;2024-01-10T11:21:55;101730.03;;;11.28;60.87
33414;BME280;60055;41.884;12.534;2024-01-10T11:24:24;101721.84;;;11.39;60.88
33414;BME280;60055;41.884;12.534;2024-01-10T11:26:50;101719.94;;;11.44;61.12
33414;BME280;60055;41.884;12.534;2024-01-10T11:29:15;101713.22;;;11.29;61.70
33414;BME280;60055;41.884;12.534;2024-01-10T11:31:41;101716.75;;;11.29;62.25
33414;BME280;60055;41.884;12.534;2024-01-10T11:34:08;101718.56;;;11.27;64.10
33414;BME280;60055;41.884;12.534;2024-01-10T11:36:34;101711.59;;;11.23;66.64
33414;BME280;60055;41.884;12.534;2024-01-10T11:39:01;101714.25;;;11.23;66.59
33414;BME280;60055;41.884;12.534;2024-01-10T11:46:40;101709.06;;;11.19;66.24
33414;BME280;60055;41.884;12.534;2024-01-10T11:49:09;101717.97;;;11.15;67.94
33414;BME280;60055;41.884;12.534;2024-01-10T11:51:37;101710.97;;;11.12;68.79
33414;BME280;60055;41.884;12.534;2024-01-10T11:54:03;101713.16;;;10.94;69.27
33414;BME280;60055;41.884;12.534;2024-01-10T11:56:54;101708.47;;;11.06;69.16
33414;BME280;60055;41.884;12.534;2024-01-10T11:59:19;101716.47;;;11.03;69.62
33414;BME280;60055;41.884;12.534;2024-01-10T12:01:46;101713.69;;;11.09;69.51
33414;BME280;60055;41.884;12.534;2024-01-10T12:04:12;101708.44;;;11.08;69.25
33414;BME280;60055;41.884;12.534;2024-01-10T12:06:39;101709.41;;;11.04;69.83
33414;BME280;60055;41.884;12.534;2024-01-10T12:09:04;101708.31;;;11.12;70.02
33414;BME280;60055;41.884;12.534;2024-01-10T12:11:38;101696.94;;;11.10;69.61
33414;BME280;60055;41.884;12.534;2024-01-10T12:14:04;101695.47;;;10.97;70.33
33414;BME280;60055;41.884;12.534;2024-01-10T12:16:32;101699.09;;;10.92;70.39
33414;BME280;60055;41.884;12.534;2024-01-10T12:18:58;101704.34;;;10.95;70.61
33414;BME280;60055;41.884;12.534;2024-01-10T12:21:23;101699.97;;;10.92;70.83
33414;BME280;60055;41.884;12.534;2024-01-10T12:23:49;101705.25;;;10.94;70.99
33414;BME280;60055;41.884;12.534;2024-01-10T12:26:16;101699.88;;;10.98;70.76
33414;BME280;60055;41.884;12.534;2024-01-10T12:28:53;101697.22;;;10.98;70.10
33414;BME280;60055;41.884;12.534;2024-01-10T12:31:19;101699.09;;;10.92;70.35
33414;BME280;60055;41.884;12.534;2024-01-10T12:33:48;101694.69;;;10.92;70.21
33414;BME280;60055;41.884;12.534;2024-01-10T12:36:14;101692.69;;;11.03;70.94
33414;BME280;60055;41.884;12.534;2024-01-10T12:38:39;101689.22;;;11.01;70.94
33414;BME280;60055;41.884;12.534;2024-01-10T12:41:05;101687.41;;;11.03;70.77
33414;BME280;60055;41.884;12.534;2024-01-10T12:43:34;101682.41;;;10.91;70.31
33414;BME280;60055;41.884;12.534;2024-01-10T12:46:17;101676.59;;;10.74;70.47
33414;BME280;60055;41.884;12.534;2024-01-10T12:48:42;101682.56;;;10.82;70.64
33414;BME280;60055;41.884;12.534;2024-01-10T12:51:09;101673.75;;;10.83;70.26
33414;BME280;60055;41.884;12.534;2024-01-10T12:56:02;101673.19;;;10.69;70.81
33414;BME280;60055;41.884;12.534;2024-01-10T12:58:28;101670.59;;;10.66;70.76